Airfield :
LOGIN :

Register | Disclaimer

   EN    FR    IT 

 










Legend :    VFR   Marginal VFR   IFR   Intensive IFR   Very Intensive IFR
Visi :
Ceiling :
>= 8 km
>= 3000ft
5 to 8 km
1000 to 3000 ft
1500m to 5 km
500 to 1000 ft
800 to 1500m
200 to 500 ft
< 800m
< 200 ft
Symbols :   Thunderstorms  Fog  Heavy snow  Heavy precipitations  Wind > 20 kt
SIGMETs :     Misc.  Thunderstorms  Icing  Turbulence  Mountain Waves  Volcanic Ashes






- Airport Elevation : 75 ft
- IATA code : YEO


EGDY - RNAS Yeovilton

CURRENT METAR :
  • 241050Z 22015KT 4500 -RA SCT010 OVC020 11/09 Q1009 TEMPO 3000 BKN006 RMK GRN TEMPO YLO1

EXPIRED METARs :
  • 241020Z 22015KT 8000 -RA SCT012 OVC024 11/09 Q1009 TEMPO 3000 BKN006 RMK GRN TEMPO YLO1
  • 240950Z AUTO 22013KT 9999 RA FEW011/// BKN050/// 11/09 Q1010
  • 240921Z 22014G24KT 9999 -RA BKN012 11/10 Q1010 TEMPO 3000 BKN006 RMK GRN TEMPO YLO1
  • 240850Z 22018G31KT 4000 -RADZ BKN010 11/09 Q1010 TEMPO 3000 BKN006 RMK GRN TEMPO YLO1

TAF TAF EGDY
Valid from the 24 at 09:00 until the 24 at 18:00 UTC


240737Z 2409/2418 22015G25KT 9999 BKN008
TEMPO 2409/2414 22020G35KT 5000 RA
PROB30
TEMPO 2409/2412 3000 +RA BKN006
BECMG 2414/2416 26015G25KT BKN025
TEMPO 2414/2418 BKN018



MET'MAP, your aeronautical weather chart ! - Copyright ORBIFLY December 2007 - Disclaimer

ORBIFLY MET'MAP TEAM :

Programming & Development : Alexandra Zaïnal
Concept & original design : Baudouin d'Aumeries
Assistance for programming : Marc-Olivier Méhu
Technical & hardware support : Manuel Goepfert

Contact : metmap@orbifly.com




SOURCES & CREDITS :

   NOAA